Time;durP1;ratioP1;P1;durP2;ratioP2;P2;SDS_P1;SDS_P2;PMS_P1;PMS_P2;Temp;Humidity;BMP_temperature;BMP_pressure;BME280_temperature;BME280_humidity;BME280_pressure;Samples;Min_cycle;Max_cycle;Signal;HPM_P1;HPM_P2
2024/04/21 00:01:49;;;;;;;10.63;3.37;;;;;;;;;;5523137;26;20227;-78
2024/04/21 00:04:21;;;;;;;8.70;3.23;;;;;;;;;;5523069;26;20235;-77
2024/04/21 00:06:49;;;;;;;8.57;3.27;;;;;;;;;;5522717;26;20231;-77
2024/04/21 00:09:18;;;;;;;7.93;2.90;;;;;;;;;;5523169;26;20232;-78
2024/04/21 00:11:44;;;;;;;11.13;3.70;;;;;;;;;;5523174;26;20220;-78
2024/04/21 00:14:13;;;;;;;7.67;3.13;;;;;;;;;;5522117;26;20298;-78
2024/04/21 00:16:40;;;;;;;8.33;3.10;;;;;;;;;;5522290;25;20606;-78
2024/04/21 00:19:08;;;;;;;8.27;3.20;;;;;;;;;;5522428;25;20297;-79
2024/04/21 00:21:35;;;;;;;7.23;3.47;;;;;;;;;;5525027;26;20272;-78
2024/04/21 00:24:06;;;;;;;6.33;2.90;;;;;;;;;;5526524;26;20230;-78
2024/04/21 00:26:33;;;;;;;9.33;3.10;;;;;;;;;;5526914;26;20262;-78
2024/04/21 00:29:02;;;;;;;4.90;2.80;;;;;;;;;;5526424;26;20275;-78
2024/04/21 00:31:28;;;;;;;7.27;3.37;;;;;;;;;;5525728;26;20262;-79
2024/04/21 00:33:57;;;;;;;8.87;3.30;;;;;;;;;;5525916;26;20231;-78
2024/04/21 00:36:23;;;;;;;8.07;3.37;;;;;;;;;;5526764;26;20226;-78
2024/04/21 00:38:52;;;;;;;8.63;3.00;;;;;;;;;;5526805;26;20268;-78
2024/04/21 00:41:23;;;;;;;8.27;3.40;;;;;;;;;;5525794;26;20230;-78
2024/04/21 00:43:52;;;;;;;8.97;3.30;;;;;;;;;;5526123;26;20230;-78
2024/04/21 00:46:18;;;;;;;10.83;3.63;;;;;;;;;;5545696;25;20591;-78
2024/04/21 00:48:47;;;;;;;7.77;3.20;;;;;;;;;;5563921;25;20333;-77
2024/04/21 00:51:13;;;;;;;6.10;3.30;;;;;;;;;;5563461;25;20224;-78
2024/04/21 00:53:42;;;;;;;8.50;3.90;;;;;;;;;;5563680;25;20244;-79
2024/04/21 00:56:10;;;;;;;10.23;3.40;;;;;;;;;;5563644;25;20265;-78
2024/04/21 00:58:42;;;;;;;10.03;3.50;;;;;;;;;;5563413;25;20229;-78
2024/04/21 01:01:08;;;;;;;7.97;3.13;;;;;;;;;;5562916;25;20222;-78
2024/04/21 01:03:37;;;;;;;8.57;3.47;;;;;;;;;;5563397;25;20233;-78
2024/04/21 01:06:04;;;;;;;6.73;2.93;;;;;;;;;;5563217;25;20222;-78
2024/04/21 01:08:33;;;;;;;9.10;3.13;;;;;;;;;;5563489;25;20263;-78
2024/04/21 01:10:59;;;;;;;9.97;3.50;;;;;;;;;;5562122;25;20228;-78
2024/04/21 01:13:28;;;;;;;9.33;3.20;;;;;;;;;;5511468;25;20241;-77
2024/04/21 01:15:57;;;;;;;6.17;3.40;;;;;;;;;;5488232;26;20254;-77
2024/04/21 01:18:26;;;;;;;7.47;3.43;;;;;;;;;;5489413;26;20593;-77
2024/04/21 01:20:52;;;;;;;14.20;3.67;;;;;;;;;;5488060;26;20222;-77
2024/04/21 01:23:24;;;;;;;7.10;3.40;;;;;;;;;;5488424;26;20615;-78
2024/04/21 01:25:50;;;;;;;5.63;3.00;;;;;;;;;;5489086;26;20457;-78
2024/04/21 01:28:22;;;;;;;7.70;3.40;;;;;;;;;;5488742;26;20235;-78
2024/04/21 01:30:48;;;;;;;7.20;3.07;;;;;;;;;;5487935;26;20715;-78
2024/04/21 01:33:17;;;;;;;8.20;4.07;;;;;;;;;;5486825;26;20272;-78
2024/04/21 01:35:44;;;;;;;9.30;3.50;;;;;;;;;;5488422;26;20269;-78
2024/04/21 01:38:13;;;;;;;8.23;3.73;;;;;;;;;;5487829;26;20636;-79
2024/04/21 01:40:42;;;;;;;9.80;3.27;;;;;;;;;;5488138;26;20243;-78
2024/04/21 01:43:11;;;;;;;11.73;3.60;;;;;;;;;;5488923;26;20228;-78
2024/04/21 01:45:37;;;;;;;9.13;3.50;;;;;;;;;;5488240;26;20211;-78
2024/04/21 01:48:06;;;;;;;7.53;3.43;;;;;;;;;;5488362;26;20304;-77
2024/04/21 01:50:32;;;;;;;7.83;3.50;;;;;;;;;;5487956;26;20269;-77
2024/04/21 01:53:01;;;;;;;10.47;3.97;;;;;;;;;;5488711;26;20235;-79
2024/04/21 01:55:27;;;;;;;8.80;3.80;;;;;;;;;;5488053;26;20707;-79
2024/04/21 01:57:59;;;;;;;8.83;3.43;;;;;;;;;;5487785;26;20269;-78
2024/04/21 02:00:25;;;;;;;7.30;3.50;;;;;;;;;;5487918;26;20592;-79
2024/04/21 02:02:54;;;;;;;7.40;3.40;;;;;;;;;;5487994;26;20234;-78
2024/04/21 02:05:21;;;;;;;6.93;3.40;;;;;;;;;;5488518;26;20266;-78
2024/04/21 02:07:50;;;;;;;10.13;3.60;;;;;;;;;;5488172;26;20756;-78
2024/04/21 02:10:16;;;;;;;6.63;3.37;;;;;;;;;;5487620;26;20331;-77
2024/04/21 02:12:45;;;;;;;8.73;3.47;;;;;;;;;;5488155;26;20338;-78
2024/04/21 02:15:14;;;;;;;7.83;3.20;;;;;;;;;;5520277;25;20229;-77
2024/04/21 02:17:43;;;;;;;9.13;3.70;;;;;;;;;;5524760;25;20226;-79
2024/04/21 02:20:10;;;;;;;8.13;4.07;;;;;;;;;;5524457;25;20214;-78
2024/04/21 02:22:38;;;;;;;11.83;3.83;;;;;;;;;;5524719;25;20271;-79
2024/04/21 02:25:05;;;;;;;10.47;3.60;;;;;;;;;;5525013;25;20222;-79
2024/04/21 02:27:34;;;;;;;8.13;3.43;;;;;;;;;;5523753;26;20235;-78
2024/04/21 02:30:00;;;;;;;7.87;3.60;;;;;;;;;;5524794;26;20225;-79
2024/04/21 02:32:32;;;;;;;9.90;3.73;;;;;;;;;;5524690;26;20241;-78
2024/04/21 02:34:58;;;;;;;8.10;3.33;;;;;;;;;;5524880;26;20229;-79
2024/04/21 02:37:27;;;;;;;7.57;3.50;;;;;;;;;;5524120;26;20709;-78
2024/04/21 02:39:53;;;;;;;7.50;3.80;;;;;;;;;;5524800;25;20938;-79
2024/04/21 02:42:22;;;;;;;9.40;4.00;;;;;;;;;;5523562;26;20242;-79
2024/04/21 02:44:48;;;;;;;11.47;4.03;;;;;;;;;;5524381;25;20626;-78
2024/04/21 02:47:17;;;;;;;10.53;3.93;;;;;;;;;;5524319;26;20217;-79
2024/04/21 02:49:46;;;;;;;9.93;3.87;;;;;;;;;;5524633;26;20752;-79
2024/04/21 02:52:15;;;;;;;7.73;4.10;;;;;;;;;;5524369;26;20361;-78
2024/04/21 02:54:41;;;;;;;7.30;3.97;;;;;;;;;;5524026;26;20218;-78
2024/04/21 02:57:10;;;;;;;12.47;3.90;;;;;;;;;;5523683;26;20273;-78
2024/04/21 02:59:36;;;;;;;9.60;4.40;;;;;;;;;;5524083;25;20563;-78
2024/04/21 03:02:05;;;;;;;8.87;4.13;;;;;;;;;;5523912;26;20585;-78
2024/04/21 03:04:32;;;;;;;10.23;4.87;;;;;;;;;;5523595;26;20263;-77
2024/04/21 03:07:03;;;;;;;10.47;4.20;;;;;;;;;;5523877;26;20314;-77
2024/04/21 03:09:29;;;;;;;7.33;4.17;;;;;;;;;;5524128;25;20264;-78
2024/04/21 03:11:58;;;;;;;9.40;4.10;;;;;;;;;;5523860;26;20295;-78
2024/04/21 03:14:24;;;;;;;9.07;3.67;;;;;;;;;;5523979;26;20265;-78
2024/04/21 03:16:53;;;;;;;9.37;4.33;;;;;;;;;;5523826;25;20274;-79
2024/04/21 03:19:19;;;;;;;10.33;4.27;;;;;;;;;;5522988;26;20275;-78
2024/04/21 03:21:48;;;;;;;8.87;4.47;;;;;;;;;;5523503;26;20225;-78
2024/04/21 03:24:17;;;;;;;9.17;3.93;;;;;;;;;;5523680;25;20883;-77
2024/04/21 03:26:46;;;;;;;7.07;3.90;;;;;;;;;;5523267;26;20795;-77
2024/04/21 03:29:12;;;;;;;8.80;4.10;;;;;;;;;;5523629;26;20268;-77
2024/04/21 03:31:41;;;;;;;12.10;4.43;;;;;;;;;;5523922;26;20273;-78
2024/04/21 03:34:07;;;;;;;8.43;3.77;;;;;;;;;;5523444;26;20260;-77
2024/04/21 03:36:36;;;;;;;9.77;4.50;;;;;;;;;;5523540;26;20292;-78
2024/04/21 03:39:05;;;;;;;9.87;3.90;;;;;;;;;;5523392;26;20226;-78
2024/04/21 03:41:36;;;;;;;9.40;4.20;;;;;;;;;;5522983;25;20236;-77
2024/04/21 03:44:06;;;;;;;8.43;3.60;;;;;;;;;;5523333;25;20767;-78
2024/04/21 03:46:32;;;;;;;9.73;4.33;;;;;;;;;;5522837;26;20282;-78
2024/04/21 03:49:01;;;;;;;8.23;3.73;;;;;;;;;;5523760;25;20232;-77
2024/04/21 03:51:27;;;;;;;8.90;3.87;;;;;;;;;;5522797;26;20605;-79
2024/04/21 03:53:56;;;;;;;7.30;4.03;;;;;;;;;;5522770;25;20240;-77
2024/04/21 03:56:22;;;;;;;10.53;3.73;;;;;;;;;;5524484;25;20221;-79
2024/04/21 03:58:53;;;;;;;6.77;3.93;;;;;;;;;;5526600;25;20241;-78
2024/04/21 04:01:19;;;;;;;8.57;4.40;;;;;;;;;;5526297;25;20605;-78
2024/04/21 04:03:48;;;;;;;7.67;3.90;;;;;;;;;;5526556;25;20282;-77
2024/04/21 04:06:14;;;;;;;12.10;3.93;;;;;;;;;;5526457;25;20224;-78
2024/04/21 04:08:43;;;;;;;11.50;4.47;;;;;;;;;;5526588;25;20232;-78
2024/04/21 04:11:09;;;;;;;7.57;3.63;;;;;;;;;;5525992;26;20261;-78
2024/04/21 04:13:38;;;;;;;7.60;4.03;;;;;;;;;;5526057;26;20279;-78
2024/04/21 04:16:07;;;;;;;9.13;4.47;;;;;;;;;;5558321;25;20219;-77
2024/04/21 04:18:36;;;;;;;10.03;4.00;;;;;;;;;;5564279;25;20281;-77
2024/04/21 04:21:02;;;;;;;10.67;4.27;;;;;;;;;;5563932;25;20752;-78
2024/04/21 04:23:31;;;;;;;8.33;4.00;;;;;;;;;;5563396;25;20231;-79
2024/04/21 04:25:57;;;;;;;10.47;4.10;;;;;;;;;;5563720;25;20273;-77
2024/04/21 04:28:26;;;;;;;7.47;3.77;;;;;;;;;;5563915;25;20270;-77
2024/04/21 04:30:52;;;;;;;6.13;3.80;;;;;;;;;;5563731;25;20274;-78
2024/04/21 04:33:24;;;;;;;10.70;4.07;;;;;;;;;;5563529;25;20231;-77
2024/04/21 04:35:50;;;;;;;9.53;4.23;;;;;;;;;;5563500;25;20223;-78
2024/04/21 04:38:19;;;;;;;9.93;4.27;;;;;;;;;;5563668;25;20270;-77
2024/04/21 04:40:45;;;;;;;9.00;3.77;;;;;;;;;;5563316;25;20234;-78
2024/04/21 04:43:14;;;;;;;9.10;3.90;;;;;;;;;;5563496;25;20280;-78
2024/04/21 04:45:40;;;;;;;7.87;4.23;;;;;;;;;;5563291;25;20227;-78
2024/04/21 04:48:09;;;;;;;8.90;4.17;;;;;;;;;;5563456;25;20638;-78
2024/04/21 04:50:40;;;;;;;9.37;3.77;;;;;;;;;;5562733;25;20617;-78
2024/04/21 04:53:09;;;;;;;9.10;4.33;;;;;;;;;;5563211;25;20230;-79
2024/04/21 04:55:35;;;;;;;7.50;3.83;;;;;;;;;;5563457;25;20224;-78
2024/04/21 04:58:04;;;;;;;8.57;3.97;;;;;;;;;;5563243;25;20271;-78
2024/04/21 05:00:30;;;;;;;9.00;4.30;;;;;;;;;;5563242;25;20274;-78
2024/04/21 05:02:59;;;;;;;7.87;3.80;;;;;;;;;;5562842;25;20666;-77
2024/04/21 05:05:25;;;;;;;10.10;4.20;;;;;;;;;;5563172;25;20223;-78
2024/04/21 05:07:57;;;;;;;7.47;3.90;;;;;;;;;;5561628;25;20658;-77
2024/04/21 05:10:23;;;;;;;8.27;4.03;;;;;;;;;;5563382;25;20222;-78
2024/04/21 05:12:52;;;;;;;6.10;3.87;;;;;;;;;;5563066;25;20278;-78
2024/04/21 05:15:19;;;;;;;7.37;4.17;;;;;;;;;;5528811;25;20281;-77
2024/04/21 05:17:47;;;;;;;8.77;4.20;;;;;;;;;;5525104;26;20279;-78
2024/04/21 05:20:14;;;;;;;7.57;3.77;;;;;;;;;;5525185;26;20270;-77
2024/04/21 05:22:42;;;;;;;8.70;4.77;;;;;;;;;;5524835;26;20230;-78
2024/04/21 05:25:11;;;;;;;7.27;4.83;;;;;;;;;;5525554;25;20246;-78
2024/04/21 05:27:40;;;;;;;7.83;4.80;;;;;;;;;;5525469;26;20231;-78
2024/04/21 05:30:07;;;;;;;9.90;4.37;;;;;;;;;;5524519;25;20225;-78
2024/04/21 05:32:36;;;;;;;9.03;4.37;;;;;;;;;;5525259;26;20230;-78
2024/04/21 05:35:02;;;;;;;6.40;4.03;;;;;;;;;;5525596;26;20270;-77
2024/04/21 05:37:31;;;;;;;7.03;3.80;;;;;;;;;;5524804;26;20708;-79
2024/04/21 05:39:57;;;;;;;7.10;4.00;;;;;;;;;;5524784;26;20224;-79
2024/04/21 05:42:29;;;;;;;10.97;4.63;;;;;;;;;;5525487;25;20283;-78
2024/04/21 05:44:55;;;;;;;9.03;4.20;;;;;;;;;;5525420;25;20218;-79
2024/04/21 05:47:24;;;;;;;8.63;3.97;;;;;;;;;;5524915;26;20244;-77
2024/04/21 05:49:50;;;;;;;8.00;4.20;;;;;;;;;;5525450;26;20220;-78
2024/04/21 05:52:19;;;;;;;9.17;4.33;;;;;;;;;;5524691;26;20269;-77
2024/04/21 05:54:45;;;;;;;11.43;4.00;;;;;;;;;;5525125;26;20667;-78
2024/04/21 05:57:14;;;;;;;8.37;3.73;;;;;;;;;;5525021;26;20233;-77
2024/04/21 05:59:45;;;;;;;9.07;3.93;;;;;;;;;;5525334;26;20223;-77
2024/04/21 06:02:14;;;;;;;8.73;4.07;;;;;;;;;;5525284;26;20276;-77
2024/04/21 06:04:40;;;;;;;8.37;3.90;;;;;;;;;;5524037;26;20219;-78
2024/04/21 06:07:09;;;;;;;8.47;3.63;;;;;;;;;;5524454;26;20231;-78
2024/04/21 06:09:35;;;;;;;14.47;7.53;;;;;;;;;;5524432;26;20216;-78
2024/04/21 06:12:04;;;;;;;59.03;30.63;;;;;;;;;;5522955;26;20234;-77
2024/04/21 06:14:30;;;;;;;44.33;28.17;;;;;;;;;;5524486;26;20237;-77
2024/04/21 06:17:02;;;;;;;46.33;31.17;;;;;;;;;;5524786;26;20697;-78
2024/04/21 06:19:28;;;;;;;14.03;9.57;;;;;;;;;;5524077;26;20563;-77
2024/04/21 06:21:57;;;;;;;19.87;13.73;;;;;;;;;;5524512;26;20260;-78
2024/04/21 06:24:23;;;;;;;20.43;13.27;;;;;;;;;;5525166;26;20225;-78
2024/04/21 06:26:52;;;;;;;13.97;9.60;;;;;;;;;;5524602;25;20289;-79
2024/04/21 06:29:18;;;;;;;26.27;22.97;;;;;;;;;;5524553;25;20222;-79
2024/04/21 06:31:47;;;;;;;26.23;22.17;;;;;;;;;;5524476;25;20271;-77
2024/04/21 06:34:16;;;;;;;18.97;16.27;;;;;;;;;;5524377;25;20222;-79
2024/04/21 06:36:44;;;;;;;15.00;9.87;;;;;;;;;;5524539;25;20230;-79
2024/04/21 06:39:11;;;;;;;7.80;3.97;;;;;;;;;;5524561;26;20222;-79
2024/04/21 06:41:40;;;;;;;16.93;11.30;;;;;;;;;;5524246;26;20243;-78
2024/04/21 06:44:06;;;;;;;12.50;6.00;;;;;;;;;;5524372;26;20214;-78
2024/04/21 06:46:35;;;;;;;19.90;12.83;;;;;;;;;;5523914;26;20229;-78
2024/04/21 06:49:01;;;;;;;8.87;5.37;;;;;;;;;;5524040;26;20222;-78
2024/04/21 06:51:32;;;;;;;9.20;6.43;;;;;;;;;;5524247;26;20623;-78
2024/04/21 06:53:58;;;;;;;6.97;5.10;;;;;;;;;;5524342;25;20711;-77
2024/04/21 06:56:27;;;;;;;10.53;4.80;;;;;;;;;;5524228;26;20227;-78
2024/04/21 06:58:53;;;;;;;10.00;4.43;;;;;;;;;;5524519;26;20603;-78
2024/04/21 07:01:22;;;;;;;8.87;4.43;;;;;;;;;;5523826;26;20745;-78
2024/04/21 07:03:48;;;;;;;11.47;5.00;;;;;;;;;;5523985;26;20260;-77
2024/04/21 07:06:17;;;;;;;9.17;4.63;;;;;;;;;;5523609;26;20288;-79
2024/04/21 07:08:46;;;;;;;11.40;4.57;;;;;;;;;;5523770;26;20225;-78
2024/04/21 07:11:15;;;;;;;12.67;4.33;;;;;;;;;;5524142;26;20241;-78
2024/04/21 07:13:42;;;;;;;12.20;4.67;;;;;;;;;;5523846;26;20973;-79
2024/04/21 07:16:10;;;;;;;9.93;4.27;;;;;;;;;;5523967;26;20769;-78
2024/04/21 07:18:37;;;;;;;9.73;4.50;;;;;;;;;;5523552;26;20218;-78
2024/04/21 07:21:07;;;;;;;10.70;4.23;;;;;;;;;;5524809;25;20281;-79
2024/04/21 07:23:33;;;;;;;9.73;4.03;;;;;;;;;;5523995;26;20268;-78
2024/04/21 07:26:04;;;;;;;10.33;4.53;;;;;;;;;;5523719;25;20226;-77
2024/04/21 07:28:31;;;;;;;11.63;4.27;;;;;;;;;;5523850;25;20222;-78
2024/04/21 07:30:59;;;;;;;10.53;4.03;;;;;;;;;;5525577;26;20230;-78
2024/04/21 07:33:26;;;;;;;11.30;4.27;;;;;;;;;;5527264;26;20210;-79
2024/04/21 07:35:56;;;;;;;10.40;4.20;;;;;;;;;;5524682;26;20288;-78
2024/04/21 07:38:22;;;;;;;8.53;4.10;;;;;;;;;;5526837;26;20264;-77
2024/04/21 07:40:51;;;;;;;9.10;4.33;;;;;;;;;;5527445;26;20341;-77
2024/04/21 07:43:20;;;;;;;9.83;4.27;;;;;;;;;;5527476;26;20221;-79
2024/04/21 07:45:50;;;;;;;11.10;4.30;;;;;;;;;;5526703;26;20226;-80
2024/04/21 07:48:16;;;;;;;9.73;4.83;;;;;;;;;;5526545;26;20260;-80
2024/04/21 07:50:47;;;;;;;10.00;4.10;;;;;;;;;;5526882;26;20230;-78
2024/04/21 07:53:13;;;;;;;9.67;4.40;;;;;;;;;;5527318;26;20225;-78
2024/04/21 07:55:42;;;;;;;10.77;4.63;;;;;;;;;;5526660;26;20952;-79
2024/04/21 07:58:08;;;;;;;10.43;4.23;;;;;;;;;;5526905;26;20573;-78
2024/04/21 08:00:42;;;;;;;8.60;3.70;;;;;;;;;;5527234;26;20630;-79
2024/04/21 08:03:08;;;;;;;9.63;3.90;;;;;;;;;;5526823;26;20750;-79
2024/04/21 08:05:37;;;;;;;12.03;4.07;;;;;;;;;;5526827;26;20272;-78
2024/04/21 08:08:03;;;;;;;10.40;4.90;;;;;;;;;;5526686;26;20281;-78
2024/04/21 08:10:32;;;;;;;9.73;3.90;;;;;;;;;;5527082;26;20301;-79
2024/04/21 08:12:59;;;;;;;12.47;4.70;;;;;;;;;;5526473;26;20222;-80
2024/04/21 08:15:28;;;;;;;8.80;3.87;;;;;;;;;;5525385;26;20238;-80
2024/04/21 08:17:56;;;;;;;10.83;3.97;;;;;;;;;;5526945;26;20222;-78
2024/04/21 08:20:25;;;;;;;10.57;4.33;;;;;;;;;;5526656;26;20351;-79
2024/04/21 08:22:52;;;;;;;8.97;4.40;;;;;;;;;;5526308;26;20273;-79
2024/04/21 08:25:21;;;;;;;10.03;3.83;;;;;;;;;;5526093;26;20299;-77
2024/04/21 08:27:47;;;;;;;7.73;3.80;;;;;;;;;;5528679;25;20622;-78
2024/04/21 08:30:16;;;;;;;8.37;3.60;;;;;;;;;;5524306;25;20587;-78
2024/04/21 08:32:42;;;;;;;10.27;4.20;;;;;;;;;;5516916;25;20293;-79
2024/04/21 08:35:13;;;;;;;6.77;3.80;;;;;;;;;;5529698;25;20294;-78
2024/04/21 08:37:40;;;;;;;6.50;3.70;;;;;;;;;;5527756;25;20234;-79
2024/04/21 08:40:10;;;;;;;11.93;3.73;;;;;;;;;;5524815;26;20226;-78
2024/04/21 08:42:37;;;;;;;11.53;4.27;;;;;;;;;;5524950;25;20231;-79
2024/04/21 08:45:06;;;;;;;8.10;3.73;;;;;;;;;;5525911;26;20232;-80
2024/04/21 08:47:32;;;;;;;8.43;3.20;;;;;;;;;;5525588;26;20218;-79
2024/04/21 08:50:03;;;;;;;9.07;3.57;;;;;;;;;;5520569;25;20287;-78
2024/04/21 08:52:33;;;;;;;7.37;3.37;;;;;;;;;;5519133;26;20234;-78
2024/04/21 08:55:02;;;;;;;7.37;3.33;;;;;;;;;;5517876;26;20240;-79
2024/04/21 08:57:28;;;;;;;8.47;3.43;;;;;;;;;;5534605;25;20767;-79
2024/04/21 09:00:00;;;;;;;9.13;3.57;;;;;;;;;;5524117;26;21066;-79
2024/04/21 09:02:27;;;;;;;9.40;3.57;;;;;;;;;;5536080;25;20239;-79
2024/04/21 09:04:56;;;;;;;9.57;3.47;;;;;;;;;;5515562;25;20240;-78
2024/04/21 09:07:23;;;;;;;7.87;3.27;;;;;;;;;;5518728;25;20233;-78
2024/04/21 09:09:55;;;;;;;9.40;4.00;;;;;;;;;;5506485;25;20731;-78
2024/04/21 09:12:21;;;;;;;9.20;4.10;;;;;;;;;;5525198;26;20230;-78
2024/04/21 09:14:50;;;;;;;9.40;4.10;;;;;;;;;;5523343;26;20284;-79
2024/04/21 09:17:16;;;;;;;9.27;3.90;;;;;;;;;;5522491;26;20230;-79
2024/04/21 09:19:45;;;;;;;8.47;3.73;;;;;;;;;;5524329;26;20314;-79
2024/04/21 09:22:11;;;;;;;9.10;3.40;;;;;;;;;;5524542;26;20230;-77
2024/04/21 09:24:41;;;;;;;7.90;3.90;;;;;;;;;;5500976;26;20607;-79
2024/04/21 09:27:10;;;;;;;9.70;4.00;;;;;;;;;;5512145;26;20284;-79
2024/04/21 09:29:39;;;;;;;6.87;3.40;;;;;;;;;;5523841;26;20280;-78
2024/04/21 09:32:05;;;;;;;8.03;3.60;;;;;;;;;;5524614;26;20588;-80
2024/04/21 09:34:35;;;;;;;8.70;3.00;;;;;;;;;;5524428;26;20818;-77
2024/04/21 09:37:01;;;;;;;9.97;4.50;;;;;;;;;;5516715;25;20230;-78
2024/04/21 09:39:30;;;;;;;9.43;4.50;;;;;;;;;;5523335;26;20234;-77
2024/04/21 09:41:57;;;;;;;7.47;3.20;;;;;;;;;;5525159;25;20234;-78
2024/04/21 09:44:29;;;;;;;8.83;4.10;;;;;;;;;;5542775;25;20246;-77
2024/04/21 09:46:55;;;;;;;8.60;3.70;;;;;;;;;;5534869;25;20276;-77
2024/04/21 09:49:25;;;;;;;9.80;2.83;;;;;;;;;;5541002;25;20628;-77
2024/04/21 09:51:52;;;;;;;8.80;3.00;;;;;;;;;;5540491;25;20285;-79
2024/04/21 09:54:22;;;;;;;11.00;3.40;;;;;;;;;;5538983;25;20235;-77
2024/04/21 09:56:51;;;;;;;8.03;3.20;;;;;;;;;;5541325;25;20776;-76
2024/04/21 09:59:23;;;;;;;5.23;3.07;;;;;;;;;;5534695;25;20338;-77
2024/04/21 10:01:54;;;;;;;7.93;3.20;;;;;;;;;;5531712;25;20226;-77
2024/04/21 10:04:24;;;;;;;6.90;3.47;;;;;;;;;;5524521;26;20234;-79
2024/04/21 10:06:51;;;;;;;9.47;3.50;;;;;;;;;;5525290;26;20590;-78
2024/04/21 10:09:25;;;;;;;8.03;3.47;;;;;;;;;;5522845;26;20659;-77
2024/04/21 10:11:51;;;;;;;6.83;3.33;;;;;;;;;;5523533;26;20245;-78
2024/04/21 10:14:20;;;;;;;8.27;3.43;;;;;;;;;;5514333;26;20403;-78
2024/04/21 10:16:47;;;;;;;6.63;3.17;;;;;;;;;;5524165;26;20223;-77
2024/04/21 10:19:25;;;;;;;7.37;3.27;;;;;;;;;;5527009;25;20246;-79
2024/04/21 10:21:52;;;;;;;8.30;3.70;;;;;;;;;;5522875;26;20230;-76
2024/04/21 10:24:22;;;;;;;4.67;3.40;;;;;;;;;;5524791;26;20233;-76
2024/04/21 10:26:58;;;;;;;12.77;4.17;;;;;;;;;;5524122;26;20241;-77
2024/04/21 10:29:31;;;;;;;8.33;3.73;;;;;;;;;;5496155;26;20246;-78
2024/04/21 10:32:07;;;;;;;8.50;3.83;;;;;;;;;;5523760;26;20234;-78
2024/04/21 10:34:43;;;;;;;9.67;4.53;;;;;;;;;;5524515;26;20837;-77
2024/04/21 10:37:12;;;;;;;9.97;4.10;;;;;;;;;;5524074;26;20230;-76
2024/04/21 10:39:41;;;;;;;8.10;4.67;;;;;;;;;;5524207;26;20654;-82
2024/04/21 10:42:09;;;;;;;7.20;4.53;;;;;;;;;;5524463;26;20277;-77
2024/04/21 10:44:38;;;;;;;8.43;4.47;;;;;;;;;;5524766;26;20719;-76
2024/04/21 10:47:05;;;;;;;8.63;4.27;;;;;;;;;;5524225;26;20269;-77
2024/04/21 10:49:34;;;;;;;10.23;4.77;;;;;;;;;;5524302;26;20786;-78
2024/04/21 10:52:03;;;;;;;12.43;5.70;;;;;;;;;;5524777;26;20229;-79
2024/04/21 10:54:33;;;;;;;14.80;10.10;;;;;;;;;;5524950;26;20229;-79
2024/04/21 10:57:01;;;;;;;8.57;5.00;;;;;;;;;;5523307;26;20222;-79
2024/04/21 10:59:30;;;;;;;7.43;5.10;;;;;;;;;;5524269;26;20234;-79
2024/04/21 11:01:56;;;;;;;10.43;4.60;;;;;;;;;;5524072;26;20598;-77
2024/04/21 11:04:25;;;;;;;8.80;5.37;;;;;;;;;;5522641;25;20591;-79
2024/04/21 11:06:52;;;;;;;7.03;4.03;;;;;;;;;;5522494;26;20230;-78
2024/04/21 11:09:24;;;;;;;10.70;6.43;;;;;;;;;;5524058;26;20230;-79
2024/04/21 11:11:50;;;;;;;9.10;5.40;;;;;;;;;;5523393;26;20226;-78
2024/04/21 11:14:20;;;;;;;7.40;4.60;;;;;;;;;;5523573;25;20289;-79
2024/04/21 11:16:51;;;;;;;7.07;4.30;;;;;;;;;;5523632;25;20238;-78
2024/04/21 11:19:20;;;;;;;14.60;11.83;;;;;;;;;;5523612;26;20226;-79
2024/04/21 11:21:47;;;;;;;12.23;8.10;;;;;;;;;;5523376;26;20230;-79
2024/04/21 11:24:16;;;;;;;11.63;7.20;;;;;;;;;;5523467;26;20268;-79
2024/04/21 11:26:45;;;;;;;14.67;11.37;;;;;;;;;;5523729;25;20222;-79
2024/04/21 11:29:14;;;;;;;22.70;16.03;;;;;;;;;;5523788;26;20230;-79
2024/04/21 11:31:41;;;;;;;13.23;9.53;;;;;;;;;;5524097;26;20273;-79
2024/04/21 11:34:10;;;;;;;8.47;4.30;;;;;;;;;;5523187;25;20234;-79
2024/04/21 11:36:36;;;;;;;11.10;8.13;;;;;;;;;;5523265;25;20226;-79
2024/04/21 11:39:06;;;;;;;6.37;3.30;;;;;;;;;;5523264;26;20549;-79
2024/04/21 11:41:32;;;;;;;9.77;3.10;;;;;;;;;;5524017;25;20734;-77
2024/04/21 11:44:04;;;;;;;10.17;4.50;;;;;;;;;;5522904;25;20754;-79
2024/04/21 11:46:34;;;;;;;7.63;4.53;;;;;;;;;;5523339;26;20226;-79
2024/04/21 11:49:03;;;;;;;5.83;3.17;;;;;;;;;;5523240;26;20571;-79
2024/04/21 11:51:29;;;;;;;6.27;3.97;;;;;;;;;;5509403;25;20222;-79
2024/04/21 11:53:59;;;;;;;13.83;3.70;;;;;;;;;;5522915;25;20229;-79
2024/04/21 11:56:25;;;;;;;4.80;2.90;;;;;;;;;;5523120;26;20905;-76
2024/04/21 11:58:54;;;;;;;5.27;2.80;;;;;;;;;;5523273;26;20230;-77
2024/04/21 12:01:23;;;;;;;6.73;3.20;;;;;;;;;;5520055;25;20230;-78
2024/04/21 12:03:52;;;;;;;5.30;3.00;;;;;;;;;;5522732;26;20230;-77
2024/04/21 12:06:18;;;;;;;4.90;2.50;;;;;;;;;;5522377;26;20230;-77
2024/04/21 12:08:47;;;;;;;5.18;2.40;;;;;;;;;;5522294;26;20238;-77
2024/04/21 12:11:14;;;;;;;5.25;2.60;;;;;;;;;;5522521;26;20264;-77
2024/04/21 12:13:42;;;;;;;8.88;3.15;;;;;;;;;;5513809;26;20243;-79
2024/04/21 12:16:09;;;;;;;8.63;3.10;;;;;;;;;;5503340;26;20583;-78
2024/04/21 12:18:40;;;;;;;9.43;3.10;;;;;;;;;;5526621;26;20237;-76
2024/04/21 12:21:07;;;;;;;8.67;2.57;;;;;;;;;;5519133;26;20239;-76
2024/04/21 12:23:36;;;;;;;8.73;2.40;;;;;;;;;;5516216;25;20233;-77
2024/04/21 12:26:02;;;;;;;5.97;2.40;;;;;;;;;;5539136;25;20574;-77
2024/04/21 12:28:31;;;;;;;6.85;2.17;;;;;;;;;;5525177;26;20326;-79
2024/04/21 12:31:00;;;;;;;8.13;2.53;;;;;;;;;;5527304;25;20283;-78
2024/04/21 12:33:29;;;;;;;5.73;2.17;;;;;;;;;;5522693;25;20235;-79
2024/04/21 12:35:58;;;;;;;5.63;2.70;;;;;;;;;;5499237;26;20225;-79
2024/04/21 12:38:27;;;;;;;5.83;3.70;;;;;;;;;;5499045;25;20272;-77
2024/04/21 12:40:55;;;;;;;3.87;2.30;;;;;;;;;;5505893;26;20231;-78
2024/04/21 12:43:24;;;;;;;4.07;1.60;;;;;;;;;;5521340;26;20241;-78
2024/04/21 12:45:50;;;;;;;4.47;1.60;;;;;;;;;;5498596;26;20276;-78
2024/04/21 12:48:20;;;;;;;5.13;2.40;;;;;;;;;;5518331;25;20684;-77
2024/04/21 12:50:46;;;;;;;4.43;1.93;;;;;;;;;;5509658;26;20235;-77
2024/04/21 12:53:18;;;;;;;4.20;1.77;;;;;;;;;;5516838;25;20250;-77
2024/04/21 12:55:45;;;;;;;7.20;2.30;;;;;;;;;;5514656;26;20231;-77
2024/04/21 12:58:15;;;;;;;7.67;3.00;;;;;;;;;;5505377;26;20790;-77
2024/04/21 13:00:41;;;;;;;5.10;3.07;;;;;;;;;;5518540;25;20230;-78
2024/04/21 13:03:10;;;;;;;4.50;2.07;;;;;;;;;;5517653;25;20353;-77
2024/04/21 13:05:37;;;;;;;4.67;1.97;;;;;;;;;;5511587;26;20269;-79
2024/04/21 13:08:06;;;;;;;7.33;2.93;;;;;;;;;;5497488;26;20281;-78
2024/04/21 13:10:35;;;;;;;5.37;2.10;;;;;;;;;;5516033;25;20296;-77
2024/04/21 13:13:03;;;;;;;9.03;4.53;;;;;;;;;;5521790;25;20267;-76
2024/04/21 13:15:30;;;;;;;5.53;2.63;;;;;;;;;;5505883;25;20238;-77
2024/04/21 13:17:59;;;;;;;7.43;4.93;;;;;;;;;;5505102;26;20294;-78
2024/04/21 13:20:25;;;;;;;8.43;5.97;;;;;;;;;;5513861;25;21070;-78
2024/04/21 13:22:58;;;;;;;7.83;4.13;;;;;;;;;;5538234;25;20798;-77
2024/04/21 13:25:24;;;;;;;21.63;13.47;;;;;;;;;;5537118;25;20229;-77
2024/04/21 13:27:56;;;;;;;9.53;5.97;;;;;;;;;;5527489;25;20250;-79
2024/04/21 13:30:23;;;;;;;7.23;4.00;;;;;;;;;;5528184;25;20230;-77
2024/04/21 13:32:52;;;;;;;4.20;1.30;;;;;;;;;;5544500;25;20234;-78
2024/04/21 13:35:18;;;;;;;5.00;2.50;;;;;;;;;;5518560;25;20234;-77
2024/04/21 13:37:47;;;;;;;4.53;1.83;;;;;;;;;;5519127;25;20276;-78
2024/04/21 13:40:13;;;;;;;8.03;2.77;;;;;;;;;;5522672;26;20234;-78
2024/04/21 13:42:42;;;;;;;9.37;6.63;;;;;;;;;;5523244;26;20317;-78
2024/04/21 13:45:11;;;;;;;9.47;6.47;;;;;;;;;;5523111;26;20273;-77
2024/04/21 13:47:40;;;;;;;8.43;5.53;;;;;;;;;;5523711;26;20829;-77
2024/04/21 13:50:07;;;;;;;8.20;5.90;;;;;;;;;;5521586;26;20230;-77
2024/04/21 13:52:36;;;;;;;17.87;11.13;;;;;;;;;;5523980;26;20788;-78
2024/04/21 13:55:03;;;;;;;13.20;9.50;;;;;;;;;;5522177;26;20636;-77
2024/04/21 13:57:34;;;;;;;11.77;6.23;;;;;;;;;;5524347;26;20246;-76
2024/04/21 14:00:00;;;;;;;9.33;4.73;;;;;;;;;;5520905;26;20226;-77
2024/04/21 14:02:32;;;;;;;8.17;4.27;;;;;;;;;;5519091;25;20229;-77
2024/04/21 14:04:58;;;;;;;11.47;7.50;;;;;;;;;;5544633;25;20226;-79
2024/04/21 14:07:27;;;;;;;5.23;2.80;;;;;;;;;;5523969;26;20287;-79
2024/04/21 14:09:53;;;;;;;8.23;6.63;;;;;;;;;;5523504;25;20804;-79
2024/04/21 14:12:23;;;;;;;4.03;1.80;;;;;;;;;;5524812;26;20761;-77
2024/04/21 14:14:49;;;;;;;8.67;7.33;;;;;;;;;;5525110;26;20230;-76
2024/04/21 14:17:18;;;;;;;7.40;3.20;;;;;;;;;;5524286;26;20334;-77
2024/04/21 14:19:47;;;;;;;9.20;6.73;;;;;;;;;;5524616;25;20567;-77
2024/04/21 14:22:16;;;;;;;6.07;2.00;;;;;;;;;;5524229;25;20230;-79
2024/04/21 14:24:42;;;;;;;5.27;2.30;;;;;;;;;;5525038;25;20723;-77
2024/04/21 14:27:12;;;;;;;6.70;3.40;;;;;;;;;;5522341;26;20356;-77
2024/04/21 14:29:40;;;;;;;3.70;1.53;;;;;;;;;;5525136;25;20218;-77
2024/04/21 14:32:09;;;;;;;7.90;4.80;;;;;;;;;;5525090;26;20839;-76
2024/04/21 14:34:38;;;;;;;8.50;5.87;;;;;;;;;;5523972;25;20222;-77
2024/04/21 14:37:07;;;;;;;11.53;7.70;;;;;;;;;;5524203;25;20226;-78
2024/04/21 14:39:36;;;;;;;12.20;8.80;;;;;;;;;;5523996;26;20230;-76
2024/04/21 14:42:02;;;;;;;16.17;10.37;;;;;;;;;;5509371;25;20277;-77
2024/04/21 14:44:35;;;;;;;9.60;5.53;;;;;;;;;;5537121;25;20679;-77